createdAt,value
2023-05-25T00:01:02.435Z,98231.13
2023-05-25T00:03:31.992Z,98230.09
2023-05-25T00:06:01.842Z,98236.88
2023-05-25T00:08:29.672Z,98239.34
2023-05-25T00:10:56.606Z,98240.13
2023-05-25T00:13:23.557Z,98241.78
2023-05-25T00:15:50.756Z,98249.59
2023-05-25T00:18:18.725Z,98250.44
2023-05-25T00:20:47.671Z,98246.06
2023-05-25T00:23:14.903Z,98250.16
2023-05-25T00:25:41.918Z,98240.94
2023-05-25T00:28:08.967Z,98242.59
2023-05-25T00:30:36.028Z,98246.16
2023-05-25T00:33:03.325Z,98238.03
2023-05-25T00:35:30.295Z,98247.72
2023-05-25T00:37:57.276Z,98247.06
2023-05-25T00:40:25.182Z,98254.34
2023-05-25T00:42:52.817Z,98256.81
2023-05-25T00:45:19.805Z,98253.66
2023-05-25T00:47:51.706Z,98252.09
2023-05-25T00:50:21.997Z,98249.13
2023-05-25T00:52:49.920Z,98251.84
2023-05-25T00:55:17.529Z,98255.16
2023-05-25T00:57:46.272Z,98259.59
2023-05-25T01:00:14.507Z,98259.25
2023-05-25T01:02:43.906Z,98251.97
2023-05-25T01:05:12.607Z,98253.97
2023-05-25T01:07:39.618Z,98256.00
2023-05-25T01:10:07.318Z,98262.41
2023-05-25T01:12:39.213Z,98252.66
2023-05-25T01:15:06.767Z,98259.38
2023-05-25T01:17:38.258Z,98253.66
2023-05-25T01:20:11.125Z,98254.63
2023-05-25T01:22:44.137Z,98259.53
2023-05-25T01:25:22.073Z,98254.34
2023-05-25T01:27:59.477Z,98265.44
2023-05-25T01:30:27.471Z,98268.66
2023-05-25T01:32:55.463Z,98269.09
2023-05-25T01:35:22.865Z,98268.06
2023-05-25T01:37:50.239Z,98275.91
2023-05-25T01:40:19.194Z,98276.75
2023-05-25T01:42:46.161Z,98269.41
2023-05-25T01:45:14.167Z,98269.91
2023-05-25T01:48:06.049Z,98273.41
2023-05-25T01:50:55.374Z,98270.66
2023-05-25T01:53:43.239Z,98277.81
2023-05-25T01:56:11.813Z,98279.59
2023-05-25T01:58:46.016Z,98276.84
2023-05-25T02:01:15.411Z,98283.88
2023-05-25T02:03:43.077Z,98275.97
2023-05-25T02:06:10.070Z,98279.75
2023-05-25T02:08:37.019Z,98269.00
2023-05-25T02:11:03.962Z,98273.28
2023-05-25T02:13:30.921Z,98273.66
2023-05-25T02:15:57.848Z,98273.56
2023-05-25T02:18:24.810Z,98276.16
2023-05-25T02:20:51.937Z,98272.47
2023-05-25T02:23:19.184Z,98276.16
2023-05-25T02:25:46.665Z,98278.19
2023-05-25T02:28:15.217Z,98282.81
2023-05-25T02:30:42.136Z,98275.56
2023-05-25T02:33:09.082Z,98279.59
2023-05-25T02:35:36.343Z,98282.03
2023-05-25T02:38:03.290Z,98282.00
2023-05-25T02:40:30.221Z,98277.34
2023-05-25T02:42:57.093Z,98284.94
2023-05-25T02:45:23.956Z,98285.69
2023-05-25T02:47:51.050Z,98276.66
2023-05-25T02:50:17.916Z,98288.44
2023-05-25T02:52:44.849Z,98287.47
2023-05-25T02:55:13.760Z,98290.16
2023-05-25T02:57:41.163Z,98285.09
2023-05-25T03:00:08.573Z,98279.37
2023-05-25T03:02:35.489Z,98294.59
2023-05-25T03:05:04.357Z,98295.31
2023-05-25T03:07:31.864Z,98301.75
2023-05-25T03:09:59.651Z,98296.16
2023-05-25T03:12:26.656Z,98292.56
2023-05-25T03:14:53.545Z,98298.41
2023-05-25T03:17:20.484Z,98302.06
2023-05-25T03:19:47.422Z,98302.47
2023-05-25T03:22:14.331Z,98296.25
2023-05-25T03:24:41.882Z,98297.69
2023-05-25T03:27:09.169Z,98299.72
2023-05-25T03:29:36.127Z,98294.75
2023-05-25T03:32:03.229Z,98294.03
2023-05-25T03:34:30.420Z,98297.34
2023-05-25T03:36:57.366Z,98302.59
2023-05-25T03:39:24.259Z,98306.88
2023-05-25T03:41:51.454Z,98312.44
2023-05-25T03:44:18.360Z,98311.41
2023-05-25T03:46:45.389Z,98309.41
2023-05-25T03:49:14.288Z,98319.97
2023-05-25T03:51:42.062Z,98322.03
2023-05-25T03:54:09.074Z,98317.16
2023-05-25T03:56:35.975Z,98324.00
2023-05-25T03:59:02.962Z,98328.53
2023-05-25T04:01:30.313Z,98333.78
2023-05-25T04:03:57.566Z,98334.25
2023-05-25T04:06:25.770Z,98331.87
2023-05-25T04:08:53.145Z,98328.59
2023-05-25T04:11:21.221Z,98337.69
2023-05-25T04:13:48.111Z,98332.09
2023-05-25T04:16:15.114Z,98328.28
2023-05-25T04:18:42.058Z,98333.53
2023-05-25T04:21:08.956Z,98342.69
2023-05-25T04:23:35.978Z,98341.66
2023-05-25T04:26:03.552Z,98339.25
2023-05-25T04:28:30.838Z,98341.59
2023-05-25T04:30:57.710Z,98340.50
2023-05-25T04:33:24.952Z,98340.28
2023-05-25T04:35:51.861Z,98343.59
2023-05-25T04:38:18.787Z,98345.81
2023-05-25T04:40:46.620Z,98348.00
2023-05-25T04:43:13.884Z,98349.38
2023-05-25T04:45:40.927Z,98359.63
2023-05-25T04:48:07.856Z,98353.22
2023-05-25T04:50:34.781Z,98363.13
2023-05-25T04:53:01.726Z,98376.00
2023-05-25T04:55:28.584Z,98371.69
2023-05-25T04:57:55.507Z,98370.47
2023-05-25T05:00:22.522Z,98381.44
2023-05-25T05:02:50.174Z,98378.13
2023-05-25T05:05:17.854Z,98385.22
2023-05-25T05:07:44.787Z,98385.63
2023-05-25T05:10:11.851Z,98387.97
2023-05-25T05:12:38.796Z,98387.56
2023-05-25T05:15:06.282Z,98389.78
2023-05-25T05:17:33.416Z,98391.06
2023-05-25T05:20:00.537Z,98387.44
2023-05-25T05:22:27.664Z,98388.44
2023-05-25T05:24:54.653Z,98383.09
2023-05-25T05:27:21.527Z,98390.16
2023-05-25T05:29:48.437Z,98384.81
2023-05-25T05:32:15.366Z,98395.91
2023-05-25T05:34:42.242Z,98389.59
2023-05-25T05:37:09.115Z,98395.63
2023-05-25T05:39:36.388Z,98390.09
2023-05-25T05:42:03.655Z,98395.13
2023-05-25T05:44:30.572Z,98388.31
2023-05-25T05:47:01.430Z,98398.84
2023-05-25T05:49:31.477Z,98395.16
2023-05-25T05:51:58.619Z,98406.88
2023-05-25T05:54:28.126Z,98399.34
2023-05-25T05:56:55.189Z,98403.72
2023-05-25T05:59:22.629Z,98405.59
2023-05-25T06:01:49.800Z,98413.94
2023-05-25T06:04:17.177Z,98415.59
2023-05-25T06:06:45.452Z,98408.81
2023-05-25T06:09:12.846Z,98413.63
2023-05-25T06:11:40.321Z,98410.88
2023-05-25T06:14:07.309Z,98417.22
2023-05-25T06:16:34.441Z,98412.12
2023-05-25T06:19:09.430Z,98418.47
2023-05-25T06:21:37.774Z,98417.34
2023-05-25T06:24:05.241Z,98418.31
2023-05-25T06:26:32.405Z,98422.19
2023-05-25T06:28:59.431Z,98431.41
2023-05-25T06:31:26.686Z,98422.81
2023-05-25T06:33:53.626Z,98438.50
2023-05-25T06:36:20.777Z,98433.25
2023-05-25T06:38:48.151Z,98442.94
2023-05-25T06:41:15.523Z,98441.28
2023-05-25T06:43:45.480Z,98441.03
2023-05-25T06:46:18.068Z,98436.69
2023-05-25T06:48:46.305Z,98428.56
2023-05-25T06:51:13.524Z,98430.63
2023-05-25T06:53:40.822Z,98436.34
2023-05-25T06:56:07.822Z,98432.31
2023-05-25T06:58:38.128Z,98436.28
2023-05-25T07:01:05.872Z,98431.28
2023-05-25T07:03:32.843Z,98430.44
2023-05-25T07:06:00.008Z,98439.28
2023-05-25T07:08:28.927Z,98433.50
2023-05-25T07:10:55.962Z,98438.94
2023-05-25T07:13:22.931Z,98431.47
2023-05-25T07:15:50.016Z,98428.38
2023-05-25T07:18:17.081Z,98425.31
2023-05-25T07:20:44.447Z,98431.03
2023-05-25T07:23:13.837Z,98432.69
2023-05-25T07:25:41.732Z,98432.97
2023-05-25T07:28:10.992Z,98435.81
2023-05-25T07:30:37.866Z,98440.56
2023-05-25T07:33:04.872Z,98435.75
2023-05-25T07:35:31.838Z,98441.38
2023-05-25T07:37:59.565Z,98439.94
2023-05-25T07:40:26.849Z,98455.22
2023-05-25T07:42:54.328Z,98432.81
2023-05-25T07:45:21.690Z,98443.38
2023-05-25T07:47:48.691Z,98445.75
2023-05-25T07:50:15.752Z,98446.44
2023-05-25T07:52:46.379Z,98441.91
2023-05-25T07:55:13.544Z,98441.59
2023-05-25T07:57:40.678Z,98451.25
2023-05-25T08:00:13.997Z,98440.72
2023-05-25T08:02:42.109Z,98447.44
2023-05-25T08:05:10.368Z,98445.22
2023-05-25T08:07:37.963Z,98445.63
2023-05-25T08:10:13.507Z,98444.91
2023-05-25T08:12:49.002Z,98451.03
2023-05-25T08:15:17.265Z,98448.00
2023-05-25T08:17:44.945Z,98437.63
2023-05-25T08:20:19.391Z,98447.91
2023-05-25T08:22:46.453Z,98446.87
2023-05-25T08:25:13.325Z,98444.56
2023-05-25T08:27:40.425Z,98450.56
2023-05-25T08:30:15.319Z,98454.41
2023-05-25T08:32:42.332Z,98453.94
2023-05-25T08:35:10.165Z,98457.97
2023-05-25T08:37:37.075Z,98448.69
2023-05-25T08:40:04.618Z,98448.59
2023-05-25T08:42:31.597Z,98452.41
2023-05-25T08:44:59.063Z,98451.03
2023-05-25T08:47:28.608Z,98453.22
2023-05-25T08:49:55.734Z,98453.81
2023-05-25T08:52:24.404Z,98451.34
2023-05-25T08:54:54.791Z,98449.69
2023-05-25T08:57:35.222Z,98445.13
2023-05-25T09:00:13.146Z,98448.88
2023-05-25T09:02:42.724Z,98456.16
2023-05-25T09:05:09.844Z,98447.81
2023-05-25T09:07:37.033Z,98454.34
2023-05-25T09:10:05.492Z,98451.06
2023-05-25T09:12:32.633Z,98461.28
2023-05-25T09:14:59.882Z,98460.13
2023-05-25T09:17:27.391Z,98461.00
2023-05-25T09:19:54.931Z,98457.47
2023-05-25T09:22:22.099Z,98463.44
2023-05-25T09:24:49.349Z,98458.88
2023-05-25T09:27:20.729Z,98457.53
2023-05-25T09:29:50.850Z,98462.81
2023-05-25T09:32:18.732Z,98462.88
2023-05-25T09:34:48.811Z,98467.53
2023-05-25T09:37:19.377Z,98466.84
2023-05-25T09:39:47.933Z,98461.81
2023-05-25T09:42:15.054Z,98462.28
2023-05-25T09:44:43.019Z,98459.84
2023-05-25T09:47:10.269Z,98461.87
2023-05-25T09:49:39.331Z,98469.50
2023-05-25T09:52:06.685Z,98461.25
2023-05-25T09:54:33.648Z,98466.22
2023-05-25T09:57:03.849Z,98457.75
2023-05-25T09:59:31.261Z,98458.56
2023-05-25T10:01:59.173Z,98464.38
2023-05-25T10:04:26.177Z,98459.97
2023-05-25T10:06:53.895Z,98458.56
2023-05-25T10:09:21.166Z,98458.78
2023-05-25T10:11:48.557Z,98452.69
2023-05-25T10:14:19.909Z,98459.47
2023-05-25T10:16:50.225Z,98451.06
2023-05-25T10:19:22.192Z,98464.16
2023-05-25T10:22:01.874Z,98470.22
2023-05-25T10:24:35.695Z,98456.25
2023-05-25T10:27:14.517Z,98463.81
2023-05-25T10:29:52.750Z,98463.19
2023-05-25T10:32:19.678Z,98462.03
2023-05-25T10:34:47.162Z,98465.34
2023-05-25T10:37:14.994Z,98462.97
2023-05-25T10:39:44.215Z,98461.97
2023-05-25T10:42:13.349Z,98462.81
2023-05-25T10:44:43.782Z,98461.81
2023-05-25T10:47:11.120Z,98460.38
2023-05-25T10:49:58.101Z,98459.38
2023-05-25T10:52:29.449Z,98451.97
2023-05-25T10:55:02.160Z,98450.62
2023-05-25T10:57:29.206Z,98458.78
2023-05-25T11:00:02.301Z,98457.41
2023-05-25T11:02:29.590Z,98454.84
2023-05-25T11:05:27.854Z,98444.53
2023-05-25T11:07:56.522Z,98456.19
2023-05-25T11:10:42.434Z,98454.19
2023-05-25T11:13:39.756Z,98449.06
2023-05-25T11:16:34.601Z,98448.31
2023-05-25T11:19:02.331Z,98458.25
2023-05-25T11:21:32.454Z,98443.16
2023-05-25T11:24:06.881Z,98442.59
2023-05-25T11:26:34.888Z,98439.56
2023-05-25T11:29:12.182Z,98442.72
2023-05-25T11:31:43.358Z,98433.31
2023-05-25T11:34:12.528Z,98421.50
2023-05-25T11:36:40.053Z,98420.53
2023-05-25T11:39:17.239Z,98415.69
2023-05-25T11:41:51.583Z,98427.78
2023-05-25T11:44:28.507Z,98430.50
2023-05-25T11:47:01.841Z,98423.69
2023-05-25T11:49:29.991Z,98421.56
2023-05-25T11:51:57.698Z,98416.50
2023-05-25T11:54:27.032Z,98412.06
2023-05-25T11:56:57.427Z,98408.37
2023-05-25T11:59:26.913Z,98408.50
2023-05-25T12:02:02.750Z,98410.94
2023-05-25T12:04:30.813Z,98402.69
2023-05-25T12:07:16.186Z,98412.72
2023-05-25T12:09:43.089Z,98406.38
2023-05-25T12:12:10.013Z,98409.88
2023-05-25T12:14:47.383Z,98403.06
2023-05-25T12:17:14.673Z,98402.50
2023-05-25T12:19:41.791Z,98397.47
2023-05-25T12:22:09.203Z,98403.97
2023-05-25T12:24:36.193Z,98408.16
2023-05-25T12:27:04.934Z,98403.22
2023-05-25T12:29:31.999Z,98398.97
2023-05-25T12:32:06.802Z,98401.91
2023-05-25T12:34:34.832Z,98401.91
2023-05-25T12:37:01.705Z,98398.25
2023-05-25T12:39:31.382Z,98395.78
2023-05-25T12:41:59.641Z,98396.44
2023-05-25T12:44:29.001Z,98392.22
2023-05-25T12:46:56.863Z,98391.13
2023-05-25T12:49:29.219Z,98393.13
2023-05-25T12:51:57.015Z,98388.06
2023-05-25T12:54:45.171Z,98388.25
2023-05-25T12:57:16.859Z,98383.94
2023-05-25T12:59:47.713Z,98380.53
2023-05-25T13:02:15.145Z,98374.44
2023-05-25T13:04:42.636Z,98371.31
2023-05-25T13:07:10.251Z,98377.34
2023-05-25T13:09:37.771Z,98367.16
2023-05-25T13:12:05.222Z,98372.63
2023-05-25T13:14:32.186Z,98365.53
2023-05-25T13:16:59.156Z,98364.81
2023-05-25T13:19:27.058Z,98359.16
2023-05-25T13:21:55.994Z,98368.91
2023-05-25T13:24:22.973Z,98364.22
2023-05-25T13:26:51.132Z,98354.59
2023-05-25T13:29:18.464Z,98360.72
2023-05-25T13:31:47.127Z,98355.66
2023-05-25T13:34:14.104Z,98357.38
2023-05-25T13:36:41.064Z,98360.66
2023-05-25T13:39:10.921Z,98348.97
2023-05-25T13:41:37.854Z,98346.78
2023-05-25T13:44:04.855Z,98350.75
2023-05-25T13:46:35.331Z,98349.03
2023-05-25T13:49:05.027Z,98348.00
2023-05-25T13:51:35.634Z,98350.59
2023-05-25T13:54:03.296Z,98352.03
2023-05-25T13:56:30.381Z,98339.59
2023-05-25T13:58:57.274Z,98333.06
2023-05-25T14:01:27.651Z,98333.38
2023-05-25T14:03:56.018Z,98323.41
2023-05-25T14:06:23.166Z,98328.19
2023-05-25T14:08:50.060Z,98328.66
2023-05-25T14:11:18.435Z,98331.13
2023-05-25T14:13:48.777Z,98331.16
2023-05-25T14:16:15.873Z,98325.19
2023-05-25T14:18:42.865Z,98324.44
2023-05-25T14:21:11.186Z,98316.31
2023-05-25T14:23:38.088Z,98319.44
2023-05-25T14:26:05.094Z,98315.22
2023-05-25T14:28:32.004Z,98315.94
2023-05-25T14:30:59.384Z,98305.75
2023-05-25T14:33:26.369Z,98298.88
2023-05-25T14:35:53.239Z,98308.37
2023-05-25T14:38:20.163Z,98303.25
2023-05-25T14:40:48.174Z,98304.56
2023-05-25T14:43:18.800Z,98301.16
2023-05-25T14:45:46.171Z,98299.25
2023-05-25T14:48:16.719Z,98294.78
2023-05-25T14:50:44.748Z,98299.59
2023-05-25T14:53:12.049Z,98301.53
2023-05-25T14:55:38.991Z,98287.03
2023-05-25T14:58:05.940Z,98295.78
2023-05-25T15:00:33.009Z,98289.75
2023-05-25T15:03:04.236Z,98298.44
2023-05-25T15:05:32.137Z,98288.94
2023-05-25T15:07:59.265Z,98299.06
2023-05-25T15:10:26.161Z,98288.09
2023-05-25T15:12:53.017Z,98299.81
2023-05-25T15:15:19.936Z,98291.16
2023-05-25T15:17:50.854Z,98294.41
2023-05-25T15:20:17.919Z,98290.06
2023-05-25T15:22:45.751Z,98291.28
2023-05-25T15:25:15.000Z,98284.34
2023-05-25T15:27:45.941Z,98290.09
2023-05-25T15:30:13.066Z,98289.50
2023-05-25T15:32:40.012Z,98288.59
2023-05-25T15:35:07.132Z,98284.53
2023-05-25T15:37:36.352Z,98274.09
2023-05-25T15:40:03.504Z,98287.31
2023-05-25T15:42:30.416Z,98288.03
2023-05-25T15:44:57.395Z,98288.91
2023-05-25T15:47:24.400Z,98288.47
2023-05-25T15:49:51.411Z,98287.00
2023-05-25T15:52:18.289Z,98286.19
2023-05-25T15:54:45.193Z,98290.28
2023-05-25T15:57:12.079Z,98281.66
2023-05-25T15:59:38.961Z,98290.69
2023-05-25T16:02:06.003Z,98286.97
2023-05-25T16:04:32.989Z,98289.41
2023-05-25T16:07:01.264Z,98292.44
2023-05-25T16:09:28.360Z,98288.56
2023-05-25T16:11:55.269Z,98286.81
2023-05-25T16:14:22.140Z,98283.84
2023-05-25T16:16:49.209Z,98277.94
2023-05-25T16:19:17.378Z,98277.97
2023-05-25T16:21:44.329Z,98280.97
2023-05-25T16:24:11.245Z,98276.72
2023-05-25T16:26:38.148Z,98279.09
2023-05-25T16:29:05.082Z,98282.12
2023-05-25T16:31:32.085Z,98276.00
2023-05-25T16:33:58.994Z,98280.69
2023-05-25T16:36:26.809Z,98275.41
2023-05-25T16:38:53.830Z,98276.91
2023-05-25T16:41:20.807Z,98284.09
2023-05-25T16:43:47.708Z,98289.72
2023-05-25T16:46:14.598Z,98297.25
2023-05-25T16:48:41.625Z,98294.88
2023-05-25T16:51:15.009Z,98296.94
2023-05-25T16:56:09.472Z,98292.13
2023-05-25T16:58:36.403Z,98284.38
2023-05-25T17:01:03.322Z,98299.03
2023-05-25T17:03:30.339Z,98294.22
2023-05-25T17:05:57.383Z,98300.69
2023-05-25T17:08:24.340Z,98296.03
2023-05-25T17:10:51.288Z,98288.06
2023-05-25T17:13:18.233Z,98286.06
2023-05-25T17:15:45.396Z,98292.81
2023-05-25T17:18:12.573Z,98297.25
2023-05-25T17:20:39.679Z,98287.41
2023-05-25T17:23:06.813Z,98294.13
2023-05-25T17:25:34.314Z,98291.88
2023-05-25T17:28:01.381Z,98288.41
2023-05-25T17:30:28.279Z,98293.25
2023-05-25T17:33:01.596Z,98293.81
2023-05-25T17:35:31.601Z,98295.47
2023-05-25T17:37:58.548Z,98295.88
2023-05-25T17:40:25.519Z,98299.84
2023-05-25T17:42:52.386Z,98290.91
2023-05-25T17:45:19.388Z,98291.50
2023-05-25T17:47:46.362Z,98296.03
2023-05-25T17:50:13.370Z,98291.75
2023-05-25T17:52:40.295Z,98296.63
2023-05-25T17:55:07.848Z,98297.38
2023-05-25T17:57:34.752Z,98297.22
2023-05-25T18:00:02.039Z,98294.78
2023-05-25T18:02:30.597Z,98293.16
2023-05-25T18:04:57.676Z,98300.53
2023-05-25T18:07:25.318Z,98297.44
2023-05-25T18:09:52.294Z,98302.66
2023-05-25T18:12:19.212Z,98306.97
2023-05-25T18:14:46.130Z,98306.41
2023-05-25T18:17:13.051Z,98313.59
2023-05-25T18:19:40.053Z,98309.72
2023-05-25T18:22:06.935Z,98312.22
2023-05-25T18:24:33.879Z,98310.78
2023-05-25T18:27:03.821Z,98309.69
2023-05-25T18:29:31.154Z,98311.19
2023-05-25T18:31:58.079Z,98306.00
2023-05-25T18:34:24.999Z,98310.66
2023-05-25T18:36:51.980Z,98313.03
2023-05-25T18:39:18.854Z,98318.66
2023-05-25T18:41:45.826Z,98325.41
2023-05-25T18:44:12.978Z,98322.22
2023-05-25T18:46:40.823Z,98325.56
2023-05-25T18:49:07.822Z,98325.41
2023-05-25T18:51:34.752Z,98327.44
2023-05-25T18:54:01.797Z,98324.78
2023-05-25T18:56:28.757Z,98328.84
2023-05-25T18:58:57.224Z,98338.09
2023-05-25T19:01:27.167Z,98325.88
2023-05-25T19:03:56.734Z,98336.06
2023-05-25T19:06:25.327Z,98343.28
2023-05-25T19:08:52.211Z,98345.66
2023-05-25T19:11:22.461Z,98351.47
2023-05-25T19:13:49.414Z,98354.94
2023-05-25T19:16:16.437Z,98354.97
2023-05-25T19:18:43.476Z,98366.34
2023-05-25T19:21:10.385Z,98369.34
2023-05-25T19:23:37.295Z,98363.72
2023-05-25T19:26:04.222Z,98365.72
2023-05-25T19:28:31.765Z,98374.41
2023-05-25T19:30:58.882Z,98377.22
2023-05-25T19:33:25.784Z,98380.22
2023-05-25T19:35:52.827Z,98382.16
2023-05-25T19:38:19.878Z,98373.12
2023-05-25T19:40:46.778Z,98378.09
2023-05-25T19:43:13.653Z,98386.63
2023-05-25T19:45:40.630Z,98374.28
2023-05-25T19:48:07.586Z,98379.03
2023-05-25T19:50:34.536Z,98385.81
2023-05-25T19:53:01.798Z,98387.34
2023-05-25T19:55:28.771Z,98381.66
2023-05-25T19:57:55.710Z,98381.72
2023-05-25T20:00:26.475Z,98388.31
2023-05-25T20:02:54.544Z,98385.84
2023-05-25T20:05:21.663Z,98391.47
2023-05-25T20:07:50.531Z,98389.50
2023-05-25T20:10:17.463Z,98386.69
2023-05-25T20:12:44.365Z,98386.88
2023-05-25T20:15:11.457Z,98374.66
2023-05-25T20:17:38.475Z,98374.59
2023-05-25T20:20:05.926Z,98372.88
2023-05-25T20:22:33.285Z,98382.72
2023-05-25T20:25:01.140Z,98380.66
2023-05-25T20:27:28.360Z,98385.34
2023-05-25T20:29:55.537Z,98382.22
2023-05-25T20:32:22.564Z,98389.72
2023-05-25T20:34:49.558Z,98392.50
2023-05-25T20:37:17.253Z,98397.62
2023-05-25T20:39:44.255Z,98400.25
2023-05-25T20:42:11.916Z,98396.75
2023-05-25T20:44:38.799Z,98403.19
2023-05-25T20:47:06.143Z,98401.66
2023-05-25T20:49:33.088Z,98399.34
2023-05-25T20:52:00.409Z,98397.66
2023-05-25T20:54:27.452Z,98396.59
2023-05-25T20:56:54.463Z,98391.66
2023-05-25T20:59:22.222Z,98392.25
2023-05-25T21:01:49.314Z,98398.28
2023-05-25T21:04:16.456Z,98389.09
2023-05-25T21:06:43.551Z,98388.25
2023-05-25T21:09:10.747Z,98391.16
2023-05-25T21:11:37.682Z,98397.12
2023-05-25T21:14:04.574Z,98399.53
2023-05-25T21:16:31.499Z,98404.81
2023-05-25T21:18:58.438Z,98401.47
2023-05-25T21:21:25.797Z,98402.72
2023-05-25T21:23:52.722Z,98404.69
2023-05-25T21:26:19.664Z,98392.63
2023-05-25T21:28:46.532Z,98385.53
2023-05-25T21:31:13.496Z,98382.91
2023-05-25T21:33:40.810Z,98379.13
2023-05-25T21:36:08.008Z,98384.72
2023-05-25T21:38:34.926Z,98380.00
2023-05-25T21:41:01.849Z,98378.59
2023-05-25T21:43:28.734Z,98374.56
2023-05-25T21:45:55.636Z,98380.69
2023-05-25T21:48:22.560Z,98379.78
2023-05-25T21:50:50.985Z,98379.03
2023-05-25T21:53:18.644Z,98384.44
2023-05-25T21:55:46.743Z,98378.84
2023-05-25T21:58:14.976Z,98373.62
2023-05-25T22:00:41.888Z,98378.47
2023-05-25T22:03:09.020Z,98375.88
2023-05-25T22:05:36.056Z,98376.94
2023-05-25T22:08:06.162Z,98379.19
2023-05-25T22:10:33.080Z,98378.06
2023-05-25T22:13:00.023Z,98383.69
2023-05-25T22:15:26.892Z,98378.28
2023-05-25T22:17:54.981Z,98376.41
2023-05-25T22:20:22.007Z,98379.13
2023-05-25T22:22:48.987Z,98374.31
2023-05-25T22:25:16.675Z,98388.97
2023-05-25T22:27:43.587Z,98388.44
2023-05-25T22:30:10.938Z,98380.44
2023-05-25T22:32:37.955Z,98389.41
2023-05-25T22:35:05.234Z,98374.50
2023-05-25T22:37:32.157Z,98371.06
2023-05-25T22:39:59.117Z,98376.47
2023-05-25T22:42:26.024Z,98376.44
2023-05-25T22:44:52.943Z,98376.16
2023-05-25T22:47:19.908Z,98364.97
2023-05-25T22:49:46.869Z,98375.28
2023-05-25T22:52:13.780Z,98375.50
2023-05-25T22:54:40.727Z,98380.50
2023-05-25T22:57:09.398Z,98368.66
2023-05-25T22:59:36.657Z,98372.75
2023-05-25T23:02:03.857Z,98372.13
2023-05-25T23:04:30.942Z,98372.03
2023-05-25T23:06:57.912Z,98368.75
2023-05-25T23:09:24.801Z,98370.78
2023-05-25T23:11:51.667Z,98370.28
2023-05-25T23:14:18.549Z,98364.97
2023-05-25T23:16:48.656Z,98363.63
2023-05-25T23:19:16.966Z,98369.50
2023-05-25T23:21:44.291Z,98366.44
2023-05-25T23:24:11.315Z,98365.31
2023-05-25T23:26:38.219Z,98363.37
2023-05-25T23:29:05.184Z,98357.72
2023-05-25T23:31:32.160Z,98355.50
2023-05-25T23:33:59.173Z,98361.84
2023-05-25T23:36:26.381Z,98357.28
2023-05-25T23:38:53.339Z,98349.91
2023-05-25T23:41:20.462Z,98346.31
2023-05-25T23:43:47.429Z,98352.56
2023-05-25T23:46:17.596Z,98345.38
2023-05-25T23:48:47.485Z,98346.63
2023-05-25T23:51:14.350Z,98350.06
2023-05-25T23:53:41.256Z,98349.34
2023-05-25T23:56:08.636Z,98354.75
2023-05-25T23:58:35.849Z,98344.31
